createdAt,value
2018-08-23T00:10:47.021Z,63.90
2018-08-23T00:13:16.189Z,65.30
2018-08-23T00:15:45.346Z,64.10
2018-08-23T00:18:14.520Z,64.00
2018-08-23T00:20:43.717Z,64.10
2018-08-23T00:23:12.874Z,64.70
2018-08-23T00:25:42.370Z,64.90
2018-08-23T00:28:12.261Z,65.10
2018-08-23T00:30:42.985Z,65.00
2018-08-23T00:33:12.133Z,65.20
2018-08-23T00:35:41.461Z,65.60
2018-08-23T00:38:10.609Z,65.80
2018-08-23T00:40:42.717Z,66.20
2018-08-23T00:43:13.554Z,66.50
2018-08-23T00:45:42.708Z,66.60
2018-08-23T00:48:11.888Z,67.20
2018-08-23T00:50:48.345Z,66.80
2018-08-23T00:53:17.741Z,66.60
2018-08-23T00:55:46.913Z,66.60
2018-08-23T00:58:16.148Z,67.20
2018-08-23T01:00:53.522Z,67.30
2018-08-23T01:03:22.914Z,67.20
2018-08-23T01:05:52.065Z,67.40
2018-08-23T01:08:26.461Z,67.10
2018-08-23T01:10:55.606Z,67.00
2018-08-23T01:13:24.764Z,67.30
2018-08-23T01:15:53.941Z,67.10
2018-08-23T01:18:23.114Z,67.70
2018-08-23T01:20:53.114Z,67.60
2018-08-23T01:23:22.533Z,67.30
2018-08-23T01:25:52.124Z,67.20
2018-08-23T01:28:21.281Z,66.90
2018-08-23T01:30:50.718Z,67.60
2018-08-23T01:33:21.162Z,66.90
2018-08-23T01:35:51.369Z,66.20
2018-08-23T01:38:20.569Z,67.00
2018-08-23T01:40:53.876Z,67.00
2018-08-23T01:43:24.434Z,66.90
2018-08-23T01:45:53.569Z,67.10
2018-08-23T01:48:22.931Z,67.40
2018-08-23T01:50:52.044Z,67.80
2018-08-23T01:53:22.625Z,68.10
2018-08-23T01:55:51.754Z,68.30
2018-08-23T01:58:20.915Z,68.60
2018-08-23T02:01:08.556Z,68.80
2018-08-23T02:03:38.053Z,69.10
2018-08-23T02:06:07.196Z,69.10
2018-08-23T02:08:36.338Z,69.50
2018-08-23T02:11:05.994Z,69.50
2018-08-23T02:13:35.133Z,69.80
2018-08-23T02:16:04.822Z,69.90
2018-08-23T02:18:34.489Z,69.80
2018-08-23T02:21:09.518Z,69.60
2018-08-23T02:23:45.737Z,69.60
2018-08-23T02:26:15.253Z,69.50
2018-08-23T02:28:47.045Z,69.60
2018-08-23T02:31:16.193Z,69.70
2018-08-23T02:33:45.323Z,69.70
2018-08-23T02:36:18.889Z,69.60
2018-08-23T02:38:51.917Z,69.70
2018-08-23T02:41:21.136Z,69.10
2018-08-23T02:43:50.243Z,68.80
2018-08-23T02:46:19.378Z,68.80
2018-08-23T02:48:48.518Z,69.00
2018-08-23T02:51:17.646Z,69.70
2018-08-23T02:53:47.900Z,69.10
2018-08-23T02:56:18.527Z,69.40
2018-08-23T02:58:56.635Z,69.40
2018-08-23T03:01:30.434Z,69.30
2018-08-23T03:04:18.001Z,69.70
2018-08-23T03:06:56.993Z,69.20
2018-08-23T03:09:28.645Z,69.60
2018-08-23T03:11:58.981Z,69.10
2018-08-23T03:14:28.745Z,69.10
2018-08-23T03:17:27.619Z,69.10
2018-08-23T03:20:19.167Z,69.00
2018-08-23T03:22:50.560Z,69.20
2018-08-23T03:25:20.968Z,69.20
2018-08-23T03:27:50.584Z,69.20
2018-08-23T03:30:20.401Z,69.20
2018-08-23T03:32:49.604Z,69.00
2018-08-23T03:35:18.896Z,69.00
2018-08-23T03:37:48.037Z,68.80
2018-08-23T03:40:17.893Z,69.00
2018-08-23T03:42:47.958Z,68.70
2018-08-23T03:45:22.409Z,68.90
2018-08-23T03:47:52.781Z,68.30
2018-08-23T03:50:21.905Z,68.70
2018-08-23T03:52:52.335Z,68.70
2018-08-23T03:55:23.298Z,68.60
2018-08-23T03:57:57.777Z,68.60
2018-08-23T04:00:32.129Z,68.50
2018-08-23T04:03:02.397Z,68.30
2018-08-23T04:05:31.519Z,68.20
2018-08-23T04:08:00.689Z,68.20
2018-08-23T04:10:29.881Z,68.00
2018-08-23T04:12:59.013Z,67.60
2018-08-23T04:15:32.873Z,67.40
2018-08-23T04:18:08.440Z,67.30
2018-08-23T04:20:48.020Z,67.10
2018-08-23T04:23:17.196Z,66.90
2018-08-23T04:25:46.317Z,67.20
2018-08-23T04:28:15.509Z,67.10
2018-08-23T04:33:44.597Z,67.30
2018-08-23T04:36:31.005Z,67.40
2018-08-23T04:39:00.796Z,67.50
2018-08-23T04:41:31.722Z,67.60
2018-08-23T04:44:04.638Z,67.40
2018-08-23T04:46:34.378Z,67.50
2018-08-23T04:49:05.977Z,67.80
2018-08-23T04:51:36.259Z,67.70
2018-08-23T04:54:05.492Z,67.70
2018-08-23T04:56:34.649Z,68.20
2018-08-23T04:59:03.845Z,68.00
2018-08-23T05:01:32.985Z,68.00
2018-08-23T05:04:02.177Z,68.10
2018-08-23T05:06:31.327Z,68.20
2018-08-23T05:09:00.465Z,67.70
2018-08-23T05:11:29.627Z,68.00
2018-08-23T05:13:58.854Z,67.90
2018-08-23T05:16:27.949Z,67.50
2018-08-23T05:18:57.125Z,67.60
2018-08-23T05:22:29.953Z,67.70
2018-08-23T05:25:04.083Z,67.40
2018-08-23T05:28:38.614Z,67.40
2018-08-23T05:31:07.773Z,67.50
2018-08-23T05:33:36.917Z,67.60
2018-08-23T05:36:09.777Z,67.00
2018-08-23T05:38:38.921Z,67.20
2018-08-23T05:41:12.153Z,67.20
2018-08-23T05:43:41.741Z,67.30
2018-08-23T05:46:10.888Z,66.90
2018-08-23T05:48:40.377Z,66.90
2018-08-23T05:51:10.892Z,66.80
2018-08-23T05:53:44.576Z,66.80
2018-08-23T05:56:13.722Z,66.80
2018-08-23T05:58:42.845Z,66.80
2018-08-23T06:01:12.078Z,66.90
2018-08-23T06:03:41.157Z,66.70
2018-08-23T06:06:10.330Z,66.60
2018-08-23T06:08:43.785Z,66.60
2018-08-23T06:11:12.933Z,66.60
2018-08-23T06:13:42.404Z,66.60
2018-08-23T06:16:11.528Z,66.20
2018-08-23T06:18:40.712Z,66.80
2018-08-23T06:21:16.308Z,65.90
2018-08-23T06:24:03.648Z,65.90
2018-08-23T06:26:54.030Z,65.40
2018-08-23T06:29:30.930Z,65.40
2018-08-23T06:32:06.137Z,65.30
2018-08-23T06:34:37.923Z,64.40
2018-08-23T06:37:07.068Z,64.30
2018-08-23T06:39:36.186Z,63.50
2018-08-23T06:42:05.510Z,63.40
2018-08-23T06:44:40.759Z,63.50
2018-08-23T06:47:11.928Z,63.20
2018-08-23T06:49:42.134Z,62.50
2018-08-23T06:52:13.194Z,62.30
2018-08-23T06:54:42.558Z,61.40
2018-08-23T06:57:12.118Z,60.90
2018-08-23T06:59:41.297Z,60.60
2018-08-23T07:02:10.424Z,61.70
2018-08-23T07:04:39.609Z,60.60
2018-08-23T07:07:12.890Z,60.00
2018-08-23T07:09:42.033Z,59.70
2018-08-23T07:12:16.507Z,60.00
2018-08-23T07:14:47.310Z,59.90
2018-08-23T07:17:22.034Z,59.40
2018-08-23T07:19:51.829Z,59.60
2018-08-23T07:22:21.989Z,59.40
2018-08-23T07:24:52.260Z,58.90
2018-08-23T07:27:22.301Z,58.90
2018-08-23T07:29:56.708Z,58.80
2018-08-23T07:32:26.900Z,58.20
2018-08-23T07:35:02.493Z,58.50
2018-08-23T07:37:33.916Z,58.50
2018-08-23T07:40:08.289Z,57.90
2018-08-23T07:42:38.045Z,58.10
2018-08-23T07:45:08.526Z,57.60
2018-08-23T07:47:40.341Z,57.80
2018-08-23T07:50:09.590Z,57.40
2018-08-23T07:52:41.433Z,57.20
2018-08-23T07:55:10.558Z,57.10
2018-08-23T07:57:40.278Z,57.50
2018-08-23T08:00:36.970Z,56.70
2018-08-23T08:03:06.435Z,55.70
2018-08-23T08:05:37.988Z,55.70
2018-08-23T08:08:08.263Z,55.90
2018-08-23T08:10:39.660Z,55.00
2018-08-23T08:13:08.821Z,54.70
2018-08-23T08:15:38.018Z,55.20
2018-08-23T08:18:23.503Z,55.20
2018-08-23T08:21:02.474Z,55.40
2018-08-23T08:23:32.525Z,55.30
2018-08-23T08:26:01.653Z,55.10
2018-08-23T08:28:30.813Z,54.90
2018-08-23T08:31:01.415Z,54.30
2018-08-23T08:33:34.843Z,55.00
2018-08-23T08:36:04.979Z,55.30
2018-08-23T08:38:34.655Z,55.70
2018-08-23T08:41:03.770Z,55.40
2018-08-23T08:43:32.924Z,54.40
2018-08-23T08:46:02.078Z,54.50
2018-08-23T08:48:33.529Z,54.50
2018-08-23T08:51:48.154Z,53.70
2018-08-23T08:54:17.279Z,53.60
2018-08-23T08:56:46.821Z,53.00
2018-08-23T08:59:15.898Z,53.70
2018-08-23T09:01:45.057Z,52.50
2018-08-23T09:04:19.505Z,52.70
2018-08-23T09:06:48.664Z,52.40
2018-08-23T09:09:41.741Z,52.00
2018-08-23T09:12:12.762Z,52.30
2018-08-23T09:14:42.973Z,50.50
2018-08-23T09:17:34.515Z,50.40
2018-08-23T09:20:06.094Z,49.90
2018-08-23T09:22:41.705Z,49.60
2018-08-23T09:25:15.909Z,51.10
2018-08-23T09:27:47.179Z,51.00
2018-08-23T09:30:21.706Z,50.90
2018-08-23T09:32:50.893Z,50.10
2018-08-23T09:35:20.784Z,49.80
2018-08-23T09:37:54.132Z,49.40
2018-08-23T09:40:24.921Z,48.60
2018-08-23T09:42:54.371Z,49.30
2018-08-23T09:45:23.492Z,47.50
2018-08-23T09:47:52.660Z,47.00
2018-08-23T09:50:21.801Z,47.70
2018-08-23T09:52:51.330Z,47.90
2018-08-23T09:55:21.348Z,48.50
2018-08-23T09:57:50.494Z,48.10
2018-08-23T10:00:29.753Z,47.90
2018-08-23T10:03:05.033Z,47.50
2018-08-23T10:05:39.650Z,47.50
2018-08-23T10:08:14.039Z,48.80
2018-08-23T10:10:48.425Z,47.90
2018-08-23T10:13:22.746Z,47.70
2018-08-23T10:15:57.143Z,46.90
2018-08-23T10:18:31.529Z,47.00
2018-08-23T10:21:02.151Z,46.70
2018-08-23T10:23:31.342Z,45.90
2018-08-23T10:26:04.549Z,46.30
2018-08-23T10:28:39.005Z,46.40
2018-08-23T10:31:08.125Z,45.30
2018-08-23T10:33:37.277Z,46.80
2018-08-23T10:36:06.413Z,47.10
2018-08-23T10:38:35.548Z,46.10
2018-08-23T10:41:05.677Z,47.10
2018-08-23T10:43:40.049Z,46.70
2018-08-23T10:46:09.228Z,45.80
2018-08-23T10:48:38.366Z,45.70
2018-08-23T10:51:07.532Z,47.00
2018-08-23T10:53:36.658Z,46.90
2018-08-23T10:56:05.822Z,46.70
2018-08-23T10:58:34.982Z,47.30
2018-08-23T11:01:04.141Z,48.10
2018-08-23T11:03:33.305Z,47.10
2018-08-23T11:06:02.470Z,48.10
2018-08-23T11:08:33.385Z,48.60
2018-08-23T11:11:07.774Z,48.90
2018-08-23T11:13:42.185Z,50.00
2018-08-23T11:17:16.503Z,51.40
2018-08-23T11:19:50.961Z,50.00
2018-08-23T11:22:24.078Z,49.00
2018-08-23T11:24:53.244Z,48.90
2018-08-23T11:27:22.409Z,47.90
2018-08-23T11:29:51.592Z,48.30
2018-08-23T11:32:20.749Z,47.90
2018-08-23T11:34:49.942Z,48.20
2018-08-23T11:37:19.094Z,47.90
2018-08-23T11:39:48.266Z,46.90
2018-08-23T11:42:17.497Z,46.30
2018-08-23T11:44:46.589Z,47.00
2018-08-23T11:47:15.742Z,47.00
2018-08-23T11:49:44.918Z,46.40
2018-08-23T11:52:14.065Z,46.50
2018-08-23T11:54:43.236Z,47.20
2018-08-23T11:57:12.426Z,48.20
2018-08-23T11:59:41.597Z,48.50
2018-08-23T12:02:10.693Z,48.40
2018-08-23T12:04:39.822Z,48.30
2018-08-23T12:07:08.965Z,48.40
2018-08-23T12:09:38.113Z,48.70
2018-08-23T12:12:07.285Z,49.10
2018-08-23T12:14:36.418Z,49.30
2018-08-23T12:17:05.761Z,49.30
2018-08-23T12:19:34.885Z,49.20
2018-08-23T12:22:04.130Z,48.90
2018-08-23T12:24:33.261Z,48.20
2018-08-23T12:27:02.403Z,47.00
2018-08-23T12:29:31.540Z,46.60
2018-08-23T12:32:00.712Z,46.00
2018-08-23T12:34:35.326Z,47.40
2018-08-23T12:37:09.609Z,47.60
2018-08-23T12:39:43.941Z,48.10
2018-08-23T12:42:18.354Z,46.30
2018-08-23T12:44:53.914Z,48.20
2018-08-23T12:47:23.069Z,46.80
2018-08-23T12:49:52.312Z,46.20
2018-08-23T12:52:21.311Z,44.50
2018-08-23T12:54:50.429Z,44.00
2018-08-23T12:57:19.560Z,44.60
2018-08-23T12:59:48.729Z,43.20
2018-08-23T13:02:17.936Z,44.40
2018-08-23T13:04:47.061Z,44.00
2018-08-23T13:07:16.245Z,43.70
2018-08-23T13:09:45.749Z,44.50
2018-08-23T13:12:15.108Z,42.70
2018-08-23T13:14:44.290Z,42.00
2018-08-23T13:17:13.526Z,43.20
2018-08-23T13:19:42.885Z,43.10
2018-08-23T13:22:12.050Z,44.70
2018-08-23T13:24:46.587Z,45.60
2018-08-23T13:27:15.745Z,46.10
2018-08-23T13:29:44.909Z,46.80
2018-08-23T13:32:14.090Z,47.00
2018-08-23T13:34:43.242Z,46.30
2018-08-23T13:37:12.473Z,47.30
2018-08-23T13:39:41.637Z,47.20
2018-08-23T13:42:10.980Z,47.60
2018-08-23T13:44:40.145Z,47.70
2018-08-23T13:47:09.306Z,47.20
2018-08-23T13:49:38.463Z,47.40
2018-08-23T13:52:07.646Z,48.30
2018-08-23T13:54:36.839Z,47.90
2018-08-23T13:57:05.966Z,48.40
2018-08-23T13:59:35.135Z,48.60
2018-08-23T14:02:04.326Z,47.10
2018-08-23T14:04:33.486Z,47.70
2018-08-23T14:07:02.634Z,48.10
2018-08-23T14:09:31.810Z,48.30
2018-08-23T14:12:00.963Z,48.40
2018-08-23T14:14:30.718Z,47.60
2018-08-23T14:17:00.237Z,47.40
2018-08-23T14:19:29.509Z,48.30
2018-08-23T14:21:58.678Z,48.10
2018-08-23T14:24:27.842Z,47.50
2018-08-23T14:26:56.981Z,48.10
2018-08-23T14:29:32.889Z,48.10
2018-08-23T14:32:02.186Z,48.00
2018-08-23T14:34:31.361Z,48.20
2018-08-23T14:37:00.525Z,48.40
2018-08-23T14:39:29.652Z,48.30
2018-08-23T14:41:58.786Z,49.00
2018-08-23T14:44:28.052Z,47.80
2018-08-23T14:47:09.311Z,48.10
2018-08-23T14:49:38.493Z,49.20
2018-08-23T14:52:07.673Z,48.90
2018-08-23T14:54:41.568Z,50.10
2018-08-23T14:57:16.047Z,49.50
2018-08-23T14:59:45.506Z,48.60
2018-08-23T15:02:14.718Z,48.50
2018-08-23T15:04:47.370Z,48.70
2018-08-23T15:07:17.025Z,48.80
2018-08-23T15:09:46.382Z,47.70
2018-08-23T15:12:15.609Z,49.80
2018-08-23T15:14:44.741Z,51.30
2018-08-23T15:17:13.909Z,52.20
2018-08-23T15:19:43.087Z,53.30
2018-08-23T15:22:12.237Z,53.90
2018-08-23T15:24:41.409Z,54.40
2018-08-23T15:27:10.715Z,54.40
2018-08-23T15:29:39.737Z,53.80
2018-08-23T15:32:08.941Z,53.60
2018-08-23T15:34:38.121Z,55.50
2018-08-23T15:37:07.277Z,58.10
2018-08-23T15:39:36.520Z,60.80
2018-08-23T15:42:05.613Z,62.80
2018-08-23T15:44:34.765Z,63.60
2018-08-23T15:47:03.953Z,63.60
2018-08-23T15:49:33.106Z,64.10
2018-08-23T15:52:03.318Z,63.90
2018-08-23T15:54:32.477Z,63.50
2018-08-23T15:57:01.625Z,61.40
2018-08-23T15:59:30.769Z,61.00
2018-08-23T16:01:59.922Z,61.60
2018-08-23T16:04:29.129Z,62.00
2018-08-23T16:06:58.262Z,60.90
2018-08-23T16:09:27.397Z,61.20
2018-08-23T16:11:56.550Z,61.20
2018-08-23T16:14:25.681Z,60.40
2018-08-23T16:17:00.117Z,60.00
2018-08-23T16:19:34.473Z,60.60
2018-08-23T16:22:03.605Z,61.30
2018-08-23T16:24:32.733Z,61.90
2018-08-23T16:27:02.746Z,62.40
2018-08-23T16:29:32.049Z,62.70
2018-08-23T16:32:01.238Z,61.40
2018-08-23T16:34:30.301Z,61.20
2018-08-23T16:36:59.441Z,60.80
2018-08-23T16:39:28.565Z,60.40
2018-08-23T16:41:57.698Z,60.40
2018-08-23T16:44:26.825Z,60.00
2018-08-23T16:46:55.973Z,60.00
2018-08-23T16:49:25.117Z,59.80
2018-08-23T16:51:54.221Z,59.80
2018-08-23T16:54:23.361Z,59.70
2018-08-23T16:56:52.488Z,59.50
2018-08-23T16:59:21.605Z,59.60
2018-08-23T17:01:50.745Z,59.30
2018-08-23T17:04:19.870Z,59.10
2018-08-23T17:06:49.019Z,59.00
2018-08-23T17:09:18.153Z,59.20
2018-08-23T17:11:47.382Z,59.10
2018-08-23T17:14:16.512Z,59.30
2018-08-23T17:16:51.017Z,59.20
2018-08-23T17:19:20.425Z,59.40
2018-08-23T17:21:49.569Z,59.60
2018-08-23T17:24:18.739Z,59.60
2018-08-23T17:26:47.882Z,59.50
2018-08-23T17:29:17.045Z,59.20
2018-08-23T17:31:46.209Z,59.30
2018-08-23T17:34:15.383Z,59.50
2018-08-23T17:36:44.529Z,60.20
2018-08-23T17:39:13.681Z,60.00
2018-08-23T17:41:42.837Z,60.10
2018-08-23T17:44:12.302Z,60.40
2018-08-23T17:46:41.459Z,60.50
2018-08-23T17:49:10.605Z,59.80
2018-08-23T17:51:39.769Z,60.00
2018-08-23T17:54:08.917Z,59.70
2018-08-23T17:56:38.081Z,58.50
2018-08-23T17:59:07.243Z,58.50
2018-08-23T18:01:36.397Z,58.20
2018-08-23T18:04:05.585Z,57.40
2018-08-23T18:06:34.767Z,57.40
2018-08-23T18:09:04.154Z,57.00
2018-08-23T18:11:33.308Z,56.90
2018-08-23T18:14:02.473Z,57.10
2018-08-23T18:16:36.910Z,57.80
2018-08-23T18:19:06.325Z,57.10
2018-08-23T18:21:35.504Z,57.30
2018-08-23T18:24:04.649Z,56.90
2018-08-23T18:26:33.817Z,57.00
2018-08-23T18:29:03.261Z,56.80
2018-08-23T18:31:33.295Z,56.70
2018-08-23T18:34:02.580Z,57.20
2018-08-23T18:36:31.877Z,57.40
2018-08-23T18:39:01.121Z,58.10
2018-08-23T18:41:30.294Z,57.40
2018-08-23T18:43:59.470Z,57.50
2018-08-23T18:46:28.682Z,57.90
2018-08-23T18:48:58.573Z,58.20
2018-08-23T18:51:29.525Z,58.70
2018-08-23T18:53:59.676Z,59.20
2018-08-23T18:56:29.750Z,59.60
2018-08-23T18:58:59.393Z,59.80
2018-08-23T19:01:28.558Z,61.30
2018-08-23T19:03:57.710Z,62.10
2018-08-23T19:06:32.166Z,62.80
2018-08-23T19:09:01.317Z,63.40
2018-08-23T19:11:30.469Z,64.00
2018-08-23T19:13:59.625Z,64.50
2018-08-23T19:16:34.108Z,64.40
2018-08-23T19:19:03.368Z,64.60
2018-08-23T19:21:32.473Z,65.00
2018-08-23T19:24:01.769Z,64.90
2018-08-23T19:26:31.233Z,65.10
2018-08-23T19:29:00.469Z,65.00
2018-08-23T19:31:29.774Z,64.90
2018-08-23T19:33:58.914Z,65.00
2018-08-23T19:36:28.217Z,65.20
2018-08-23T19:38:57.432Z,65.10
2018-08-23T19:41:26.710Z,65.40
2018-08-23T19:43:55.953Z,65.60
2018-08-23T19:46:30.489Z,65.60
2018-08-23T19:49:05.130Z,65.80
2018-08-23T19:51:34.305Z,65.80
2018-08-23T19:54:03.533Z,65.40
2018-08-23T19:56:32.733Z,65.50
2018-08-23T19:59:01.934Z,66.00
2018-08-23T20:01:31.251Z,65.60
2018-08-23T20:04:00.406Z,66.00
2018-08-23T20:06:29.617Z,66.00
2018-08-23T20:08:58.813Z,65.90
2018-08-23T20:11:28.045Z,66.00
2018-08-23T20:13:57.261Z,66.00
2018-08-23T20:16:26.517Z,66.20
2018-08-23T20:18:55.731Z,66.00
2018-08-23T20:21:24.920Z,65.70
2018-08-23T20:23:54.137Z,66.00
2018-08-23T20:26:23.285Z,66.00
2018-08-23T20:28:52.457Z,66.00
2018-08-23T20:31:21.588Z,65.50
2018-08-23T20:33:50.830Z,65.60
2018-08-23T20:36:20.009Z,65.70
2018-08-23T20:38:49.501Z,65.40
2018-08-23T20:41:18.793Z,66.50
2018-08-23T20:43:48.079Z,65.80
2018-08-23T20:46:17.214Z,66.00
2018-08-23T20:48:46.393Z,65.80
2018-08-23T20:51:15.590Z,65.80
2018-08-23T20:53:44.762Z,65.60
2018-08-23T20:56:13.892Z,65.90
2018-08-23T20:58:43.029Z,66.40
2018-08-23T21:01:12.168Z,66.70
2018-08-23T21:03:41.319Z,65.50
2018-08-23T21:06:10.438Z,65.50
2018-08-23T21:08:39.561Z,64.90
2018-08-23T21:11:08.725Z,64.80
2018-08-23T21:13:37.893Z,64.60
2018-08-23T21:16:07.045Z,64.30
2018-08-23T21:18:36.202Z,64.50
2018-08-23T21:21:05.741Z,64.80
2018-08-23T21:23:34.905Z,65.70
2018-08-23T21:26:04.219Z,66.20
2018-08-23T21:28:33.361Z,66.00
2018-08-23T21:31:02.518Z,65.50
2018-08-23T21:33:32.051Z,65.60
2018-08-23T21:36:01.193Z,65.50
2018-08-23T21:38:30.345Z,65.70
2018-08-23T21:40:59.510Z,65.10
2018-08-23T21:43:28.943Z,65.20
2018-08-23T21:45:58.086Z,65.20
2018-08-23T21:48:27.248Z,65.30
2018-08-23T21:50:56.411Z,65.50
2018-08-23T21:53:25.554Z,65.50
2018-08-23T21:55:54.696Z,65.40
2018-08-23T21:58:23.854Z,65.50
2018-08-23T22:01:00.116Z,65.40
2018-08-23T22:03:29.253Z,65.30
2018-08-23T22:05:58.390Z,65.10
2018-08-23T22:08:27.521Z,65.20
2018-08-23T22:10:56.693Z,65.00
2018-08-23T22:13:26.273Z,65.20
2018-08-23T22:15:55.399Z,65.00
2018-08-23T22:18:24.525Z,65.40
2018-08-23T22:20:53.704Z,65.10
2018-08-23T22:23:22.847Z,65.30
2018-08-23T22:25:51.969Z,65.30
2018-08-23T22:28:21.101Z,65.60
2018-08-23T22:30:50.221Z,65.80
2018-08-23T22:33:19.341Z,65.70
2018-08-23T22:35:48.481Z,65.60
2018-08-23T22:38:17.610Z,65.80
2018-08-23T22:40:46.747Z,66.10
2018-08-23T22:43:15.869Z,66.00
2018-08-23T22:45:45.335Z,66.80
2018-08-23T22:48:14.463Z,66.20
2018-08-23T22:50:43.658Z,66.20
2018-08-23T22:53:12.044Z,66.60
2018-08-23T22:55:41.174Z,66.80
2018-08-23T22:58:10.310Z,67.20
2018-08-23T23:00:40.325Z,67.20
2018-08-23T23:03:15.002Z,67.50
2018-08-23T23:05:44.966Z,67.80
2018-08-23T23:08:17.146Z,67.80
2018-08-23T23:10:46.285Z,68.00
2018-08-23T23:13:15.417Z,68.00
2018-08-23T23:15:44.560Z,68.00
2018-08-23T23:18:13.693Z,68.10
2018-08-23T23:20:42.869Z,68.00
2018-08-23T23:23:12.041Z,68.30
2018-08-23T23:25:41.197Z,68.50
2018-08-23T23:28:10.341Z,68.20
2018-08-23T23:30:39.806Z,68.30
2018-08-23T23:33:08.949Z,68.40
2018-08-23T23:35:38.097Z,68.30
2018-08-23T23:38:07.389Z,68.40
2018-08-23T23:40:36.534Z,68.50
2018-08-23T23:43:05.745Z,67.80
2018-08-23T23:45:34.901Z,67.90
2018-08-23T23:48:04.050Z,68.00
2018-08-23T23:50:33.198Z,68.10
2018-08-23T23:53:02.345Z,68.00
2018-08-23T23:55:31.511Z,67.90
2018-08-23T23:58:00.668Z,67.60
